Time;durP1;ratioP1;P1;durP2;ratioP2;P2;SDS_P1;SDS_P2;PMS_P1;PMS_P2;Temp;Humidity;BMP_temperature;BMP_pressure;BME280_temperature;BME280_humidity;BME280_pressure;Samples;Min_cycle;Max_cycle;Signal;HPM_P1;HPM_P2
2021/06/14 00:03:40;;;;;;;1.87;1.40;;;;;;;13.94;87.33;99911.88;10503386;28;20550;-77
2021/06/14 00:09:01;;;;;;;2.20;1.63;;;;;;;13.86;87.15;99918.63;10502089;28;20186;-77
2021/06/14 00:14:22;;;;;;;8.80;2.50;;;;;;;13.90;91.34;99913.06;10503074;28;20606;-77
2021/06/14 00:19:42;;;;;;;4.23;2.33;;;;;;;13.73;95.25;99920.22;10519314;28;20186;-77
2021/06/14 00:25:02;;;;;;;4.70;2.60;;;;;;;13.43;100.00;99921.09;10528122;28;20174;-77
2021/06/14 00:30:30;;;;;;;7.10;1.70;;;;;;;13.16;100.00;99919.97;10544602;28;20249;-76
2021/06/14 00:35:49;;;;;;;1.83;1.47;;;;;;;13.05;100.00;99921.94;10543548;28;20704;-76
2021/06/14 00:41:11;;;;;;;3.10;2.20;;;;;;;12.91;100.00;99914.44;10527433;28;20209;-76
2021/06/14 00:46:30;;;;;;;2.47;2.00;;;;;;;12.97;100.00;99920.34;10528592;28;20749;-77
2021/06/14 00:51:49;;;;;;;1.80;1.50;;;;;;;12.78;100.00;99921.50;10494917;28;20179;-77
2021/06/14 00:57:08;;;;;;;2.23;2.03;;;;;;;12.67;100.00;99919.94;10500139;28;20233;-77
2021/06/14 01:02:27;;;;;;;5.20;2.47;;;;;;;12.59;100.00;99912.00;10500689;28;20596;-77
2021/06/14 01:07:47;;;;;;;1.60;1.50;;;;;;;12.48;100.00;99905.72;10501203;28;20170;-76
2021/06/14 01:13:37;;;;;;;5.83;1.97;;;;;;;12.41;100.00;99908.44;10517100;28;20174;-76
2021/06/14 01:19:10;;;;;;;1.73;1.60;;;;;;;12.40;100.00;99902.13;10486134;28;20656;-77
2021/06/14 01:24:58;;;;;;;2.30;1.60;;;;;;;12.57;100.00;99908.84;10499185;28;20538;-75
2021/06/14 01:30:21;;;;;;;5.63;2.10;;;;;;;12.35;100.00;99902.53;10499144;28;20205;-77
2021/06/14 01:35:45;;;;;;;3.67;1.70;;;;;;;12.38;100.00;99890.69;10498382;28;20218;-76
2021/06/14 01:41:08;;;;;;;2.90;2.10;;;;;;;12.11;100.00;99892.22;10498616;28;20178;-76
2021/06/14 01:46:31;;;;;;;2.37;2.17;;;;;;;11.99;100.00;99883.50;10484342;28;20183;-75
2021/06/14 01:51:51;;;;;;;2.30;2.10;;;;;;;12.11;100.00;99875.69;10483722;28;20264;-76
2021/06/14 01:57:10;;;;;;;2.13;1.90;;;;;;;12.01;100.00;99881.94;10497528;28;20210;-75
2021/06/14 02:02:29;;;;;;;2.30;2.10;;;;;;;11.86;100.00;99884.25;10498938;28;20179;-77
2021/06/14 02:07:50;;;;;;;2.50;2.00;;;;;;;11.67;100.00;99882.56;10481591;28;20637;-75
2021/06/14 02:13:12;;;;;;;5.47;2.27;;;;;;;11.69;100.00;99887.72;10498028;28;20167;-75
2021/06/14 02:18:30;;;;;;;2.57;1.73;;;;;;;11.81;100.00;99890.13;10497540;28;20669;-77
2021/06/14 02:23:50;;;;;;;6.10;1.90;;;;;;;11.68;100.00;99889.66;10496827;28;20179;-76
2021/06/14 02:29:09;;;;;;;1.77;1.67;;;;;;;11.45;100.00;99889.13;10482860;28;20174;-76
2021/06/14 02:34:30;;;;;;;2.03;1.93;;;;;;;11.27;100.00;99896.50;10497919;28;20301;-76
2021/06/14 02:39:52;;;;;;;2.10;1.87;;;;;;;11.35;100.00;99905.63;10522280;28;20178;-77
2021/06/14 02:45:12;;;;;;;6.80;2.87;;;;;;;11.32;100.00;99898.91;10524323;28;20178;-77
2021/06/14 02:50:34;;;;;;;3.40;1.67;;;;;;;11.17;100.00;99891.75;10524122;28;20166;-77
2021/06/14 02:56:02;;;;;;;2.50;1.30;;;;;;;11.25;100.00;99893.38;10521965;28;20617;-76
2021/06/14 03:01:22;;;;;;;2.33;2.00;;;;;;;11.26;100.00;99883.13;10539207;28;20186;-77
2021/06/14 03:06:43;;;;;;;2.20;1.77;;;;;;;11.15;100.00;99890.50;10538885;28;20213;-76
2021/06/14 03:12:03;;;;;;;3.53;1.80;;;;;;;10.84;100.00;99893.84;10532086;28;20170;-76
2021/06/14 03:17:22;;;;;;;2.20;1.17;;;;;;;10.86;100.00;99883.25;10523567;28;20166;-76
2021/06/14 03:22:41;;;;;;;3.93;1.83;;;;;;;10.85;100.00;99878.13;10538906;28;20174;-77
2021/06/14 03:28:04;;;;;;;2.70;2.13;;;;;;;10.76;100.00;99870.19;10533632;28;20672;-75
2021/06/14 03:33:24;;;;;;;10.17;2.50;;;;;;;10.75;100.00;99867.81;10546571;28;20700;-76
2021/06/14 03:38:44;;;;;;;5.27;1.63;;;;;;;10.84;100.00;99869.06;10545396;28;20182;-76
2021/06/14 03:44:04;;;;;;;3.40;2.43;;;;;;;11.06;100.00;99875.50;10531174;28;20624;-76
2021/06/14 03:49:23;;;;;;;1.83;1.73;;;;;;;10.96;100.00;99857.75;10546271;28;20185;-76
2021/06/14 03:54:42;;;;;;;2.70;2.10;;;;;;;11.08;100.00;99873.94;10544081;28;20204;-77
2021/06/14 04:00:00;;;;;;;3.40;1.87;;;;;;;11.14;100.00;99864.19;10545743;28;20182;-76
2021/06/14 04:05:19;;;;;;;8.00;3.03;;;;;;;11.16;100.00;99873.63;10545438;28;20205;-75
2021/06/14 04:10:39;;;;;;;3.10;2.80;;;;;;;11.29;100.00;99874.88;10543017;28;20174;-76
2021/06/14 04:15:58;;;;;;;2.10;1.90;;;;;;;11.19;100.00;99881.09;10544107;28;20186;-76
2021/06/14 04:21:17;;;;;;;2.90;2.00;;;;;;;11.28;100.00;99881.56;10529647;28;20628;-76
2021/06/14 04:26:37;;;;;;;3.90;1.63;;;;;;;11.35;100.00;99870.56;10500287;28;20211;-77
2021/06/14 04:31:57;;;;;;;2.90;1.77;;;;;;;11.46;100.00;99865.16;10502601;28;20191;-76
2021/06/14 04:37:16;;;;;;;2.50;2.00;;;;;;;11.61;100.00;99861.31;10500737;28;20655;-76
2021/06/14 04:42:36;;;;;;;3.80;2.40;;;;;;;11.80;100.00;99863.72;10500105;28;20171;-76
2021/06/14 04:47:55;;;;;;;3.00;1.63;;;;;;;12.01;100.00;99854.38;10500212;28;20230;-76
2021/06/14 04:53:14;;;;;;;2.43;2.23;;;;;;;12.25;100.00;99844.53;10513514;28;21058;-76
2021/06/14 04:58:34;;;;;;;6.23;2.63;;;;;;;12.50;100.00;99840.66;10540860;28;20190;-76
2021/06/14 05:03:55;;;;;;;2.13;1.93;;;;;;;12.79;100.00;99850.50;10547552;28;20189;-76
2021/06/14 05:09:14;;;;;;;3.27;2.63;;;;;;;13.17;100.00;99850.50;10554549;28;20237;-76
2021/06/14 05:14:33;;;;;;;4.37;3.13;;;;;;;13.46;100.00;99846.44;10528037;28;20536;-75
2021/06/14 05:19:52;;;;;;;3.13;2.40;;;;;;;13.78;100.00;99847.91;10534077;28;20181;-76
2021/06/14 05:25:12;;;;;;;8.10;2.63;;;;;;;14.14;100.00;99851.31;10540190;28;20213;-78
2021/06/14 05:30:32;;;;;;;8.10;2.73;;;;;;;14.42;100.00;99860.22;10542177;28;20194;-77
2021/06/14 05:35:52;;;;;;;5.27;3.57;;;;;;;14.61;100.00;99865.25;10526038;28;20217;-76
2021/06/14 05:41:10;;;;;;;4.33;3.20;;;;;;;14.97;100.00;99847.13;10539372;28;20261;-78
2021/06/14 05:46:30;;;;;;;4.90;3.30;;;;;;;15.36;100.00;99854.66;10541031;28;20210;-77
2021/06/14 05:51:49;;;;;;;3.70;3.40;;;;;;;15.66;100.00;99849.19;10526569;28;20190;-76
2021/06/14 05:57:08;;;;;;;3.40;3.10;;;;;;;16.06;100.00;99849.06;10524302;28;20197;-78
2021/06/14 06:02:27;;;;;;;2.87;2.43;;;;;;;16.41;100.00;99851.38;10525620;28;20174;-76
2021/06/14 06:07:46;;;;;;;6.30;2.63;;;;;;;16.70;100.00;99854.50;10540569;28;20656;-77
2021/06/14 06:13:05;;;;;;;3.10;2.80;;;;;;;17.05;97.07;99833.22;10532848;28;20185;-76
2021/06/14 06:18:25;;;;;;;3.97;2.60;;;;;;;17.44;94.00;99827.75;10525012;28;20272;-75
2021/06/14 06:23:44;;;;;;;8.97;3.43;;;;;;;17.88;91.96;99818.88;10530468;28;20189;-76
2021/06/14 06:29:03;;;;;;;5.57;2.87;;;;;;;18.12;87.05;99823.94;10523686;28;20668;-75
2021/06/14 06:34:23;;;;;;;3.43;1.87;;;;;;;18.50;86.05;99825.81;10539337;28;20214;-75
2021/06/14 06:39:42;;;;;;;15.50;2.30;;;;;;;18.67;84.92;99821.84;10523078;28;20189;-76
2021/06/14 06:45:04;;;;;;;2.50;2.30;;;;;;;19.34;82.86;99815.34;10518486;28;20193;-75
2021/06/14 06:50:23;;;;;;;4.80;2.00;;;;;;;19.64;63.58;99818.47;10539515;28;20174;-76
2021/06/14 06:55:42;;;;;;;4.27;2.93;;;;;;;20.14;61.01;99810.22;10530491;28;20181;-78
2021/06/14 07:01:02;;;;;;;4.50;2.63;;;;;;;20.56;58.26;99818.03;10537462;28;20261;-75
2021/06/14 07:06:21;;;;;;;4.30;3.90;;;;;;;20.83;58.54;99821.19;10538674;28;20719;-76
2021/06/14 07:11:40;;;;;;;5.20;2.40;;;;;;;21.28;56.11;99816.03;10536691;28;20648;-75
2021/06/14 07:16:59;;;;;;;4.30;2.87;;;;;;;21.29;52.58;99821.16;10518468;28;20579;-76
2021/06/14 07:22:18;;;;;;;4.20;3.17;;;;;;;21.37;56.90;99808.47;10523381;28;20569;-76
2021/06/14 07:27:38;;;;;;;3.10;2.80;;;;;;;21.74;53.15;99813.16;10537108;28;20237;-75
2021/06/14 07:32:57;;;;;;;3.57;2.60;;;;;;;21.82;50.05;99808.84;10535052;28;20688;-77
2021/06/14 07:38:16;;;;;;;1.97;1.80;;;;;;;22.62;52.05;99805.66;10537293;28;20178;-78
2021/06/14 07:43:36;;;;;;;2.57;2.03;;;;;;;23.17;49.44;99796.16;10549963;28;20190;-78
2021/06/14 07:48:55;;;;;;;3.73;2.10;;;;;;;22.71;47.67;99800.88;10522294;28;20205;-79
2021/06/14 07:54:14;;;;;;;3.10;2.43;;;;;;;22.76;48.62;99797.47;10536963;28;20178;-79
2021/06/14 07:59:33;;;;;;;2.53;2.23;;;;;;;23.10;48.08;99800.06;10538080;28;20550;-78
2021/06/14 08:04:52;;;;;;;2.50;2.30;;;;;;;23.91;48.53;99795.19;10537911;28;20324;-79
2021/06/14 08:10:14;;;;;;;2.03;1.70;;;;;;;24.22;46.52;99799.31;10535583;28;20620;-80
2021/06/14 08:15:34;;;;;;;3.93;2.47;;;;;;;24.73;45.84;99799.28;10543538;28;20173;-77
2021/06/14 08:26:42;;;;;;;4.53;2.60;;;;;;;24.79;44.11;99803.03;10487393;28;20818;-77
2021/06/14 08:32:02;;;;;;;2.10;1.90;;;;;;;25.43;42.73;99797.28;10544636;28;20229;-77
2021/06/14 08:37:21;;;;;;;6.00;2.83;;;;;;;25.85;43.27;99789.38;10542474;28;20497;-79
2021/06/14 08:42:40;;;;;;;3.80;2.50;;;;;;;26.43;40.26;99786.53;10542433;28;20190;-80
2021/06/14 08:48:00;;;;;;;3.10;2.90;;;;;;;24.38;43.10;99781.31;10543465;28;20572;-78
2021/06/14 08:53:20;;;;;;;3.33;3.00;;;;;;;25.79;43.11;99765.19;10542603;28;20174;-77
2021/06/14 08:58:39;;;;;;;1.93;1.83;;;;;;;26.38;40.27;99761.81;10528300;28;20186;-77
2021/06/14 09:03:58;;;;;;;3.40;2.40;;;;;;;27.31;38.28;99751.88;10537061;28;20528;-77
2021/06/14 09:09:18;;;;;;;2.30;2.10;;;;;;;26.79;39.52;99750.94;10525297;28;20205;-80
2021/06/14 09:14:41;;;;;;;3.43;2.50;;;;;;;27.64;38.64;99741.72;10541834;28;20261;-77
2021/06/14 09:20:00;;;;;;;3.00;2.43;;;;;;;27.64;35.87;99736.84;10542728;28;20178;-78
2021/06/14 09:25:19;;;;;;;2.43;2.23;;;;;;;27.92;37.63;99726.56;10539463;28;20206;-78
2021/06/14 09:30:39;;;;;;;5.00;2.07;;;;;;;28.73;34.55;99725.63;10542193;28;20242;-78
2021/06/14 09:36:06;;;;;;;2.20;1.70;;;;;;;28.98;33.92;99723.97;10524157;28;20210;-77
2021/06/14 09:41:25;;;;;;;2.10;2.00;;;;;;;29.64;31.31;99722.16;10537482;28;20178;-77
2021/06/14 09:46:44;;;;;;;1.80;1.70;;;;;;;29.56;33.28;99704.09;10543043;28;20217;-77
2021/06/14 09:52:04;;;;;;;5.27;2.33;;;;;;;28.86;32.79;99711.81;10561435;28;20201;-77
2021/06/14 09:57:28;;;;;;;2.53;2.33;;;;;;;28.25;36.47;99700.63;10582003;28;20177;-77
2021/06/14 10:02:56;;;;;;;5.53;2.77;;;;;;;27.75;33.68;99691.69;10554106;28;20269;-77
2021/06/14 10:08:28;;;;;;;3.70;2.60;;;;;;;28.63;32.57;99698.03;10538694;28;20205;-78
2021/06/14 10:13:49;;;;;;;2.20;2.00;;;;;;;27.76;35.14;99684.00;10540599;28;20197;-77
2021/06/14 10:19:10;;;;;;;2.77;2.10;;;;;;;29.72;32.94;99677.81;10540317;28;20170;-78
2021/06/14 10:24:29;;;;;;;2.73;1.90;;;;;;;30.18;33.75;99658.97;10539163;28;20182;-77
2021/06/14 10:29:48;;;;;;;2.10;2.00;;;;;;;30.93;30.71;99653.63;10540039;28;20193;-77
2021/06/14 10:35:11;;;;;;;2.23;2.07;;;;;;;31.24;28.06;99661.75;10532439;28;20253;-78
2021/06/14 10:40:34;;;;;;;2.50;2.30;;;;;;;31.28;28.15;99659.38;10538364;28;20170;-77
2021/06/14 10:45:55;;;;;;;2.50;2.30;;;;;;;29.71;29.62;99645.06;10539341;28;20205;-79
2021/06/14 10:51:19;;;;;;;7.63;2.50;;;;;;;29.41;33.91;99655.31;10557815;28;20185;-77
2021/06/14 10:56:39;;;;;;;1.83;1.67;;;;;;;29.70;30.25;99649.19;10580244;28;20185;-76
2021/06/14 11:02:05;;;;;;;2.40;2.10;;;;;;;29.94;30.77;99638.88;10537797;28;20272;-77
2021/06/14 11:07:31;;;;;;;1.90;1.80;;;;;;;30.91;31.22;99633.47;10537181;28;20210;-77
2021/06/14 11:12:50;;;;;;;3.40;1.80;;;;;;;31.26;28.63;99622.94;10516427;28;20565;-77
2021/06/14 11:18:22;;;;;;;2.30;1.93;;;;;;;30.56;30.96;99632.59;10549728;28;20178;-77
2021/06/14 11:23:43;;;;;;;2.47;2.27;;;;;;;31.18;29.09;99615.50;10529646;28;20189;-76
2021/06/14 11:29:17;;;;;;;3.27;2.10;;;;;;;32.21;28.77;99596.03;10537395;28;20217;-78
2021/06/14 11:34:39;;;;;;;2.07;1.90;;;;;;;32.58;27.87;99597.72;10522060;28;20366;-77
2021/06/14 11:40:00;;;;;;;1.57;1.47;;;;;;;33.21;27.77;99592.19;10536455;28;20178;-75
2021/06/14 11:45:26;;;;;;;2.23;2.03;;;;;;;32.81;27.18;99595.31;10522703;28;20205;-78
2021/06/14 11:50:45;;;;;;;1.90;1.80;;;;;;;32.75;26.79;99574.69;10536556;28;20258;-78
2021/06/14 11:56:09;;;;;;;1.70;1.60;;;;;;;31.70;26.72;99552.28;10537837;28;20182;-76
2021/06/14 12:01:40;;;;;;;2.10;1.90;;;;;;;32.29;26.72;99540.00;10560610;28;20174;-77
2021/06/14 12:07:02;;;;;;;3.67;1.90;;;;;;;33.48;25.17;99545.34;10547510;28;20296;-76
2021/06/14 12:12:22;;;;;;;2.40;2.20;;;;;;;29.42;30.16;99549.13;10548506;28;20650;-78
2021/06/14 12:17:43;;;;;;;2.33;2.13;;;;;;;28.28;30.59;99548.31;10543526;28;20558;-78
2021/06/14 12:23:11;;;;;;;2.37;2.17;;;;;;;31.37;28.29;99533.94;10528347;28;20674;-75
2021/06/14 12:28:33;;;;;;;5.73;2.30;;;;;;;33.80;25.19;99524.03;10544243;28;20210;-77
2021/06/14 12:33:54;;;;;;;2.07;1.90;;;;;;;34.59;23.27;99523.50;10544412;28;20253;-76
2021/06/14 12:39:18;;;;;;;2.80;1.60;;;;;;;32.96;25.48;99512.94;10547283;28;20185;-76
2021/06/14 12:44:37;;;;;;;1.80;1.70;;;;;;;33.95;24.62;99507.13;10579137;28;20212;-77
2021/06/14 12:49:59;;;;;;;1.87;1.47;;;;;;;33.86;25.00;99509.66;10569591;28;20185;-77
2021/06/14 12:55:18;;;;;;;2.53;2.00;;;;;;;33.58;25.45;99501.59;10525087;28;20181;-76
2021/06/14 13:00:41;;;;;;;1.90;1.80;;;;;;;33.71;23.57;99492.28;10542713;28;20170;-79
2021/06/14 13:06:01;;;;;;;2.43;2.10;;;;;;;33.01;25.30;99495.00;10542840;28;20202;-77
2021/06/14 13:11:20;;;;;;;2.50;2.27;;;;;;;33.69;25.68;99477.78;10535532;28;20184;-76
2021/06/14 13:16:50;;;;;;;2.90;2.20;;;;;;;34.54;23.90;99483.56;10540761;28;20182;-76
2021/06/14 13:22:12;;;;;;;2.13;1.80;;;;;;;35.54;21.27;99475.69;10527506;28;20170;-76
2021/06/14 13:27:32;;;;;;;2.27;2.07;;;;;;;34.54;22.51;99469.28;10540779;28;20209;-75
2021/06/14 13:33:01;;;;;;;2.03;1.83;;;;;;;34.29;24.10;99456.59;10542132;28;20233;-73
2021/06/14 13:38:25;;;;;;;2.73;2.40;;;;;;;35.65;23.20;99471.81;10524544;28;20177;-75
2021/06/14 13:43:45;;;;;;;2.43;2.33;;;;;;;36.57;21.90;99471.22;10541753;28;20231;-74
2021/06/14 13:49:03;;;;;;;3.40;2.20;;;;;;;35.65;22.62;99463.22;10541090;28;20644;-74
2021/06/14 13:54:22;;;;;;;2.43;2.23;;;;;;;35.72;21.90;99451.03;10524698;28;20177;-73
2021/06/14 13:59:42;;;;;;;1.93;1.80;;;;;;;35.51;21.20;99439.63;10541290;28;20173;-75
2021/06/14 14:05:01;;;;;;;2.73;1.80;;;;;;;34.97;22.98;99424.59;10540856;28;20185;-74
2021/06/14 14:10:20;;;;;;;4.10;2.20;;;;;;;34.64;24.21;99431.13;10537293;28;20186;-76
2021/06/14 14:15:40;;;;;;;1.73;1.63;;;;;;;35.21;22.81;99430.78;10531364;28;20189;-76
2021/06/14 14:20:58;;;;;;;2.23;2.13;;;;;;;35.59;24.08;99428.22;10539414;28;20651;-74
2021/06/14 14:26:18;;;;;;;1.97;1.87;;;;;;;35.35;22.87;99423.63;10523511;28;20610;-76
2021/06/14 14:31:41;;;;;;;2.50;2.10;;;;;;;35.32;22.79;99415.41;10539861;28;20174;-75
2021/06/14 14:37:00;;;;;;;1.77;1.67;;;;;;;35.47;22.41;99421.25;10538530;28;20307;-75
2021/06/14 14:42:19;;;;;;;2.63;1.80;;;;;;;35.11;22.66;99398.25;10537752;28;20181;-75
2021/06/14 14:47:38;;;;;;;2.17;2.07;;;;;;;34.27;24.58;99379.22;10538266;28;20193;-74
2021/06/14 14:52:57;;;;;;;2.40;2.20;;;;;;;34.51;23.65;99376.06;10538790;28;20201;-74
2021/06/14 14:58:17;;;;;;;3.30;1.73;;;;;;;35.11;23.45;99358.22;10538866;28;20271;-73
2021/06/14 15:03:37;;;;;;;2.27;2.03;;;;;;;35.61;23.13;99351.91;10539194;28;20169;-73
2021/06/14 15:08:57;;;;;;;3.77;2.60;;;;;;;35.43;21.38;99358.63;10537077;28;20279;-75
2021/06/14 15:14:16;;;;;;;5.30;2.00;;;;;;;34.75;23.69;99345.09;10538801;28;20222;-75
2021/06/14 15:19:38;;;;;;;1.93;1.80;;;;;;;35.42;23.22;99351.38;10538491;28;20260;-73
2021/06/14 15:24:57;;;;;;;2.73;1.70;;;;;;;35.30;23.37;99341.56;10543247;28;20174;-73
2021/06/14 15:30:19;;;;;;;2.07;1.90;;;;;;;36.21;23.43;99341.50;10546978;28;20599;-73
2021/06/14 15:35:38;;;;;;;2.30;2.20;;;;;;;35.42;22.56;99342.78;10531132;28;20205;-74
2021/06/14 15:40:58;;;;;;;2.30;2.00;;;;;;;35.31;22.32;99331.63;10545400;28;20201;-74
2021/06/14 15:46:17;;;;;;;3.40;2.00;;;;;;;35.72;22.08;99327.91;10546274;28;20664;-73
2021/06/14 15:51:40;;;;;;;2.57;1.70;;;;;;;34.80;22.66;99320.56;10530641;28;20170;-74
2021/06/14 15:56:59;;;;;;;8.63;1.70;;;;;;;35.51;22.74;99319.41;10529226;28;20165;-74
2021/06/14 16:02:18;;;;;;;1.37;1.27;;;;;;;35.05;22.42;99317.56;10525951;28;20185;-73
2021/06/14 16:07:38;;;;;;;2.00;1.90;;;;;;;34.80;22.17;99309.88;10545152;28;20205;-73
2021/06/14 16:12:57;;;;;;;2.77;2.00;;;;;;;35.27;23.39;99299.78;10541661;28;20182;-73
2021/06/14 16:18:16;;;;;;;4.50;1.20;;;;;;;34.44;24.18;99300.38;10542223;28;20173;-73
2021/06/14 16:23:35;;;;;;;1.83;1.73;;;;;;;34.60;23.35;99298.44;10542562;28;20178;-76
2021/06/14 16:28:54;;;;;;;1.67;1.57;;;;;;;34.55;22.75;99302.22;10544177;28;20209;-75
2021/06/14 16:34:14;;;;;;;1.83;1.43;;;;;;;34.90;22.54;99292.97;10541962;28;20222;-75
2021/06/14 16:39:35;;;;;;;1.50;1.40;;;;;;;35.09;21.27;99282.88;10543183;28;20201;-75
2021/06/14 16:44:55;;;;;;;1.60;1.50;;;;;;;34.77;22.76;99273.84;10542478;28;20166;-78
2021/06/14 16:50:15;;;;;;;1.80;1.70;;;;;;;34.47;22.42;99272.78;10542562;28;20186;-76
2021/06/14 16:55:34;;;;;;;1.70;1.60;;;;;;;35.04;24.15;99272.34;10526754;28;20185;-78
2021/06/14 17:00:53;;;;;;;3.80;1.33;;;;;;;35.14;23.24;99273.38;10543677;28;20178;-78
2021/06/14 17:06:12;;;;;;;1.67;1.47;;;;;;;35.05;22.22;99271.78;10527747;28;20232;-78
2021/06/14 17:11:31;;;;;;;1.40;1.17;;;;;;;35.11;24.22;99258.09;10542096;28;20178;-77
2021/06/14 17:16:50;;;;;;;1.50;1.40;;;;;;;35.44;22.58;99268.59;10542952;28;20177;-77
2021/06/14 17:22:09;;;;;;;1.20;0.90;;;;;;;35.45;20.75;99263.63;10526240;28;20256;-79
2021/06/14 17:27:28;;;;;;;1.87;1.67;;;;;;;35.28;21.87;99255.53;10525324;28;20209;-76
2021/06/14 17:32:49;;;;;;;1.77;1.30;;;;;;;35.85;21.23;99257.72;10542088;28;20533;-77
2021/06/14 17:38:08;;;;;;;1.43;1.13;;;;;;;36.14;21.10;99250.56;10540857;28;20260;-76
2021/06/14 17:43:27;;;;;;;2.97;1.30;;;;;;;34.76;21.42;99254.38;10541689;28;20609;-75
2021/06/14 17:48:46;;;;;;;1.27;1.13;;;;;;;32.59;23.58;99250.84;10539761;28;20208;-74
2021/06/14 17:54:06;;;;;;;1.90;1.40;;;;;;;31.17;26.66;99245.13;10539233;28;20174;-76
2021/06/14 17:59:25;;;;;;;4.27;1.90;;;;;;;30.10;28.09;99244.34;10532660;28;20257;-76
2021/06/14 18:04:44;;;;;;;1.80;1.70;;;;;;;29.09;29.95;99243.06;10525128;28;20182;-75
2021/06/14 18:10:05;;;;;;;1.43;1.33;;;;;;;27.99;31.87;99242.38;10539593;28;20178;-74
2021/06/14 18:15:25;;;;;;;1.53;1.40;;;;;;;27.81;32.36;99236.44;10540595;28;20178;-74
2021/06/14 18:20:44;;;;;;;2.93;1.60;;;;;;;27.66;32.63;99241.56;10540558;28;20174;-75
2021/06/14 18:26:04;;;;;;;2.67;1.50;;;;;;;27.35;33.40;99238.09;10537769;28;20217;-75
2021/06/14 18:31:26;;;;;;;1.73;1.40;;;;;;;27.09;33.74;99238.25;10539141;28;20186;-76
2021/06/14 18:36:44;;;;;;;2.23;1.73;;;;;;;26.73;34.82;99239.09;10539278;28;20596;-76
2021/06/14 18:42:04;;;;;;;3.00;1.47;;;;;;;26.54;35.22;99230.72;10537587;28;20641;-75
2021/06/14 18:47:23;;;;;;;1.50;1.33;;;;;;;26.32;38.54;99236.19;10539278;28;20214;-75
2021/06/14 18:52:42;;;;;;;2.10;1.40;;;;;;;25.93;40.37;99241.50;10539261;28;20177;-75
2021/06/14 18:58:02;;;;;;;3.97;3.23;;;;;;;25.62;42.71;99251.91;10537542;28;20209;-76
2021/06/14 19:03:22;;;;;;;3.43;2.67;;;;;;;25.25;43.78;99256.63;10516198;28;20190;-76
2021/06/14 19:08:40;;;;;;;2.17;1.83;;;;;;;24.71;45.62;99250.25;10537274;28;20202;-75
2021/06/14 19:13:59;;;;;;;2.13;1.87;;;;;;;24.07;48.13;99255.06;10538879;28;20178;-78
2021/06/14 19:19:18;;;;;;;1.93;1.80;;;;;;;23.83;49.24;99254.41;10538969;28;20182;-75
2021/06/14 19:24:38;;;;;;;1.80;1.70;;;;;;;23.52;52.55;99261.72;10536532;28;20182;-76
2021/06/14 19:29:56;;;;;;;1.33;1.10;;;;;;;23.18;53.40;99267.91;10538800;28;20193;-76
2021/06/14 19:35:16;;;;;;;1.77;1.67;;;;;;;22.84;54.99;99273.28;10538322;28;20581;-75
2021/06/14 19:40:35;;;;;;;2.00;1.80;;;;;;;22.47;55.18;99282.34;10537237;28;20182;-75
2021/06/14 19:45:54;;;;;;;2.17;1.97;;;;;;;22.15;54.46;99285.88;10538399;28;20214;-75
2021/06/14 19:51:14;;;;;;;1.50;1.37;;;;;;;22.05;55.72;99289.94;10513989;28;20193;-75
2021/06/14 19:56:34;;;;;;;1.80;1.60;;;;;;;21.86;56.99;99296.81;10536201;28;20640;-75
2021/06/14 20:01:53;;;;;;;1.47;1.10;;;;;;;21.47;58.81;99305.41;10537996;28;20182;-76
2021/06/14 20:07:12;;;;;;;2.03;1.60;;;;;;;21.20;59.58;99305.38;10538694;28;20205;-76
2021/06/14 20:12:32;;;;;;;2.20;2.00;;;;;;;20.83;60.97;99300.97;10529046;28;20519;-74
2021/06/14 20:17:52;;;;;;;2.03;1.80;;;;;;;20.72;62.47;99308.22;10545307;28;20620;-74
2021/06/14 20:23:11;;;;;;;6.03;2.60;;;;;;;20.54;63.58;99308.91;10541676;28;20186;-76
2021/06/14 20:28:30;;;;;;;6.70;1.63;;;;;;;20.24;65.14;99309.72;10544216;28;20229;-78
2021/06/14 20:33:49;;;;;;;2.57;2.30;;;;;;;19.97;67.07;99305.22;10544435;28;20304;-78
2021/06/14 20:39:08;;;;;;;3.97;2.10;;;;;;;19.63;69.59;99303.28;10543019;28;20561;-75
2021/06/14 20:44:27;;;;;;;2.23;2.03;;;;;;;19.49;70.40;99309.38;10544276;28;20186;-75
2021/06/14 20:49:46;;;;;;;5.47;2.50;;;;;;;19.33;72.32;99301.19;10542911;28;20218;-77
2021/06/14 20:55:06;;;;;;;2.37;2.17;;;;;;;19.35;71.45;99309.09;10541468;28;20265;-75
2021/06/14 21:00:26;;;;;;;2.70;2.30;;;;;;;19.24;71.20;99308.66;10543753;28;20673;-77
2021/06/14 21:05:45;;;;;;;4.80;2.40;;;;;;;19.24;71.88;99311.47;10543231;28;20633;-76
2021/06/14 21:11:04;;;;;;;21.23;12.23;;;;;;;19.13;72.43;99313.06;10541983;28;20170;-76
2021/06/14 21:16:23;;;;;;;9.00;5.23;;;;;;;18.95;71.22;99315.63;10542940;28;20174;-75
2021/06/14 21:21:42;;;;;;;1.60;1.50;;;;;;;18.84;71.46;99318.00;10541435;28;20213;-76
2021/06/14 21:27:01;;;;;;;5.47;2.77;;;;;;;18.78;72.72;99317.78;10540464;28;20213;-76
2021/06/14 21:32:21;;;;;;;1.83;1.73;;;;;;;18.64;76.27;99311.88;10542465;28;20182;-76
2021/06/14 21:37:41;;;;;;;4.27;1.60;;;;;;;18.20;78.82;99310.09;10542202;28;20186;-73
2021/06/14 21:43:00;;;;;;;2.03;1.83;;;;;;;18.15;77.16;99315.44;10540829;28;20166;-74
2021/06/14 21:48:18;;;;;;;4.17;2.20;;;;;;;18.17;80.37;99318.56;10525996;28;20668;-76
2021/06/14 21:53:37;;;;;;;2.27;2.07;;;;;;;17.77;82.33;99309.78;10539661;28;20178;-76
2021/06/14 21:58:58;;;;;;;3.63;2.70;;;;;;;17.72;84.93;99315.13;10539414;28;20272;-76
2021/06/14 22:04:17;;;;;;;8.50;3.17;;;;;;;17.57;85.79;99319.53;10540974;28;20248;-77
2021/06/14 22:09:37;;;;;;;2.37;1.90;;;;;;;17.30;88.87;99307.94;10539088;28;20205;-77
2021/06/14 22:14:55;;;;;;;4.50;2.63;;;;;;;17.06;93.70;99303.03;10540588;28;20178;-77
2021/06/14 22:20:15;;;;;;;7.33;2.87;;;;;;;16.93;96.58;99302.97;10540591;28;20178;-76
2021/06/14 22:25:34;;;;;;;2.97;2.40;;;;;;;17.03;96.24;99312.25;10523570;28;20198;-78
2021/06/14 22:30:53;;;;;;;2.50;2.30;;;;;;;16.86;99.38;99305.94;10531087;28;20174;-76
2021/06/14 22:36:13;;;;;;;4.80;2.90;;;;;;;16.51;100.00;99299.66;10539286;28;20218;-78
2021/06/14 22:41:32;;;;;;;3.03;2.60;;;;;;;16.34;100.00;99298.88;10538575;28;20545;-78
2021/06/14 22:46:51;;;;;;;2.50;2.30;;;;;;;16.38;100.00;99305.13;10539419;28;20666;-78
2021/06/14 22:52:11;;;;;;;2.40;2.13;;;;;;;16.22;100.00;99299.53;10524106;28;20178;-78
2021/06/14 22:57:29;;;;;;;3.23;1.60;;;;;;;16.10;100.00;99299.41;10522267;28;20178;-78
2021/06/14 23:02:48;;;;;;;2.43;2.23;;;;;;;16.10;100.00;99299.41;10537451;28;20182;-77
2021/06/14 23:08:07;;;;;;;6.50;2.50;;;;;;;16.08;100.00;99296.28;10537542;28;20218;-76
2021/06/14 23:13:26;;;;;;;2.40;2.10;;;;;;;16.09;100.00;99286.75;10539044;28;20182;-78
2021/06/14 23:18:45;;;;;;;6.30;2.30;;;;;;;16.02;100.00;99292.47;10538035;28;20185;-75
2021/06/14 23:24:05;;;;;;;2.40;2.20;;;;;;;15.96;100.00;99297.72;10537602;28;20193;-75
2021/06/14 23:29:24;;;;;;;5.30;1.70;;;;;;;15.92;100.00;99295.47;10534163;28;20674;-75
2021/06/14 23:34:44;;;;;;;2.60;2.27;;;;;;;15.77;100.00;99297.75;10537852;28;20305;-76
2021/06/14 23:40:05;;;;;;;2.20;1.63;;;;;;;15.57;100.00;99301.75;10537451;28;20574;-76
2021/06/14 23:45:24;;;;;;;2.33;2.10;;;;;;;15.63;100.00;99294.50;10543892;28;20170;-76
2021/06/14 23:50:42;;;;;;;9.93;2.97;;;;;;;15.54;100.00;99300.63;10546518;28;20173;-75
2021/06/14 23:56:02;;;;;;;2.23;2.03;;;;;;;15.23;100.00;99292.88;10545083;28;20189;-77
